Time;durP1;ratioP1;P1;durP2;ratioP2;P2;SDS_P1;SDS_P2;PMS_P1;PMS_P2;Temp;Humidity;BMP_temperature;BMP_pressure;BME280_temperature;BME280_humidity;BME280_pressure;Samples;Min_cycle;Max_cycle;Signal;HPM_P1;HPM_P2
2023/12/02 00:02:02;;;;;;;18.02;9.13;;;;;;;-1.65;75.41;99814.41;10477583;28;20106;-82
2023/12/02 00:07:06;;;;;;;15.02;8.60;;;;;;;-1.67;75.16;99820.69;10484121;28;20042;-82
2023/12/02 00:12:10;;;;;;;22.10;8.93;;;;;;;-1.62;75.08;99816.06;10469446;28;20041;-81
2023/12/02 00:17:14;;;;;;;18.48;8.48;;;;;;;-1.69;74.89;99819.91;10466490;28;20040;-82
2023/12/02 00:22:17;;;;;;;14.27;7.93;;;;;;;-1.72;74.77;99823.50;10480172;28;20046;-80
2023/12/02 00:27:21;;;;;;;17.83;8.45;;;;;;;-1.68;74.65;99821.59;10467280;28;20091;-81
2023/12/02 00:32:24;;;;;;;17.67;8.77;;;;;;;-1.74;73.63;99817.44;10474686;28;20111;-82
2023/12/02 00:37:31;;;;;;;16.90;7.85;;;;;;;-1.75;73.92;99817.50;10479417;28;20047;-82
2023/12/02 00:42:36;;;;;;;17.40;8.77;;;;;;;-1.76;74.33;99824.53;10490530;28;20045;-81
2023/12/02 00:47:45;;;;;;;17.42;8.95;;;;;;;-1.63;74.48;99812.59;10450162;28;20037;-81
2023/12/02 00:52:48;;;;;;;18.58;9.73;;;;;;;-1.66;74.26;99814.50;10481580;28;20087;-80
2023/12/02 00:57:53;;;;;;;17.35;9.02;;;;;;;-1.76;73.96;99814.00;10496487;28;20469;-79
2023/12/02 01:02:56;;;;;;;18.00;9.55;;;;;;;-1.79;74.23;99806.22;10453515;28;20056;-82
2023/12/02 01:07:59;;;;;;;20.38;9.73;;;;;;;-1.71;74.52;99814.69;10480550;28;20063;-80
2023/12/02 01:13:04;;;;;;;18.15;9.15;;;;;;;-1.55;74.96;99816.72;10468763;28;20045;-81
2023/12/02 01:18:07;;;;;;;16.85;8.70;;;;;;;-1.54;74.50;99814.00;10455024;28;20444;-82
2023/12/02 01:23:11;;;;;;;18.58;8.98;;;;;;;-1.59;74.81;99820.38;10461559;28;20053;-80
2023/12/02 01:28:15;;;;;;;19.13;9.82;;;;;;;-1.67;74.31;99820.69;10456480;28;20731;-79
2023/12/02 01:33:18;;;;;;;18.23;10.35;;;;;;;-1.58;74.88;99833.50;10452650;28;20067;-80
2023/12/02 01:38:22;;;;;;;25.13;11.43;;;;;;;-1.49;74.95;99840.16;10458047;28;20033;-79
2023/12/02 01:43:28;;;;;;;30.77;12.82;;;;;;;-1.46;75.62;99834.78;10451786;28;20055;-82
2023/12/02 01:48:34;;;;;;;28.95;13.90;;;;;;;-1.49;75.64;99833.13;10457582;28;20040;-81
2023/12/02 01:53:38;;;;;;;23.50;12.32;;;;;;;-1.53;75.60;99836.81;10468074;28;20485;-81
2023/12/02 01:58:42;;;;;;;23.73;10.95;;;;;;;-1.59;75.30;99846.72;10468890;28;20100;-81
2023/12/02 02:03:48;;;;;;;21.17;10.80;;;;;;;-1.58;75.18;99848.44;10500127;28;20503;-82
2023/12/02 02:08:51;;;;;;;23.00;10.60;;;;;;;-1.49;75.66;99851.56;10477091;28;20041;-81
2023/12/02 02:13:56;;;;;;;20.10;10.15;;;;;;;-1.53;75.15;99851.75;10463505;28;20097;-81
2023/12/02 02:18:59;;;;;;;21.60;10.65;;;;;;;-1.47;75.65;99855.00;10483179;28;20033;-82
2023/12/02 02:24:04;;;;;;;15.10;8.18;;;;;;;-1.41;75.17;99848.63;10487789;28;20101;-81
2023/12/02 02:29:07;;;;;;;16.13;8.45;;;;;;;-1.51;74.25;99852.53;10499868;28;20063;-79
2023/12/02 02:34:10;;;;;;;12.68;7.78;;;;;;;-1.55;73.89;99850.94;10475597;28;20048;-82
2023/12/02 02:39:15;;;;;;;18.90;9.32;;;;;;;-1.49;74.00;99853.34;10492311;28;20053;-81
2023/12/02 02:44:18;;;;;;;18.38;9.88;;;;;;;-1.54;73.99;99861.41;10469816;28;20036;-81
2023/12/02 02:49:21;;;;;;;21.45;9.77;;;;;;;-1.68;74.42;99856.69;10473131;28;20788;-80
2023/12/02 02:54:25;;;;;;;22.60;11.60;;;;;;;-1.74;75.11;99854.28;10474877;28;20048;-82
2023/12/02 02:59:30;;;;;;;22.05;10.63;;;;;;;-1.70;75.27;99853.28;10470698;28;20045;-80
2023/12/02 03:04:33;;;;;;;22.27;10.57;;;;;;;-1.64;75.72;99858.31;10484190;28;20041;-83
2023/12/02 03:09:38;;;;;;;21.60;10.57;;;;;;;-1.68;75.44;99851.41;10472667;28;20088;-81
2023/12/02 03:14:41;;;;;;;20.02;9.75;;;;;;;-1.77;75.37;99861.47;10477976;28;20028;-80
2023/12/02 03:19:44;;;;;;;19.25;9.38;;;;;;;-1.84;75.60;99855.56;10473875;28;20101;-81
2023/12/02 03:24:49;;;;;;;18.83;9.32;;;;;;;-1.90;75.57;99858.44;10489955;28;20494;-82
2023/12/02 03:29:52;;;;;;;22.05;10.52;;;;;;;-1.86;75.10;99858.28;10462210;28;20060;-81
2023/12/02 03:34:55;;;;;;;20.23;10.38;;;;;;;-1.92;75.36;99857.63;10462011;28;20606;-80
2023/12/02 03:40:00;;;;;;;20.65;9.50;;;;;;;-1.90;75.85;99861.91;10470478;28;20040;-81
2023/12/02 03:45:08;;;;;;;22.27;9.82;;;;;;;-1.87;75.39;99856.53;10453712;28;20580;-83
2023/12/02 03:50:11;;;;;;;24.77;10.05;;;;;;;-1.83;75.76;99864.34;10459468;28;20037;-83
2023/12/02 03:55:19;;;;;;;17.33;9.60;;;;;;;-1.87;75.60;99853.03;10439926;28;20144;-81
2023/12/02 04:00:23;;;;;;;16.95;10.35;;;;;;;-1.94;75.30;99862.13;10463496;28;20036;-79
2023/12/02 04:05:27;;;;;;;19.13;9.55;;;;;;;-1.92;75.07;99865.53;10466745;28;20048;-79
2023/12/02 04:10:31;;;;;;;20.90;11.07;;;;;;;-1.87;75.46;99874.13;10478566;28;20071;-81
2023/12/02 04:15:35;;;;;;;19.38;9.93;;;;;;;-2.25;74.52;99881.66;10474758;28;20053;-81
2023/12/02 04:20:38;;;;;;;17.85;9.75;;;;;;;-2.26;74.49;99890.47;10494499;28;20041;-82
2023/12/02 04:25:42;;;;;;;19.65;9.75;;;;;;;-2.34;75.33;99876.72;10491172;28;20082;-82
2023/12/02 04:30:45;;;;;;;19.95;10.40;;;;;;;-2.21;74.55;99885.91;10482294;28;20076;-82
2023/12/02 04:35:48;;;;;;;22.05;10.95;;;;;;;-2.05;75.55;99893.25;10491655;28;20050;-81
2023/12/02 04:40:53;;;;;;;23.05;10.98;;;;;;;-2.13;75.65;99897.00;10460260;28;20045;-81
2023/12/02 04:45:56;;;;;;;26.05;11.45;;;;;;;-2.14;75.99;99892.66;10466501;28;20053;-81
2023/12/02 04:50:59;;;;;;;26.15;11.90;;;;;;;-2.03;76.78;99896.66;10468358;28;20069;-81
2023/12/02 04:56:03;;;;;;;28.70;12.65;;;;;;;-2.10;77.66;99896.03;10467915;28;20045;-81
2023/12/02 05:01:07;;;;;;;30.60;13.32;;;;;;;-2.04;77.74;99898.44;10492743;28;20063;-80
2023/12/02 05:06:15;;;;;;;25.92;12.30;;;;;;;-2.30;76.29;99902.88;10480264;28;20052;-80
2023/12/02 05:11:22;;;;;;;28.98;12.55;;;;;;;-2.38;76.72;99897.03;10493688;28;20064;-81
2023/12/02 05:16:26;;;;;;;24.48;11.38;;;;;;;-2.67;78.10;99905.06;10474204;28;20111;-80
2023/12/02 05:21:29;;;;;;;31.25;12.77;;;;;;;-2.63;78.64;99901.41;10479585;28;20045;-81
2023/12/02 05:26:34;;;;;;;33.38;13.55;;;;;;;-2.79;79.52;99899.31;10472429;28;20049;-81
2023/12/02 05:31:38;;;;;;;32.45;14.10;;;;;;;-2.78;80.78;99905.44;10455847;28;20110;-81
2023/12/02 05:36:41;;;;;;;36.58;15.07;;;;;;;-2.97;81.71;99894.66;10468730;28;20040;-82
2023/12/02 05:41:46;;;;;;;32.58;15.27;;;;;;;-2.80;81.91;99904.63;10456130;28;20515;-81
2023/12/02 05:46:51;;;;;;;31.80;13.40;;;;;;;-2.86;82.70;99910.09;10463727;28;20033;-82
2023/12/02 05:51:54;;;;;;;31.55;14.48;;;;;;;-2.79;82.01;99911.63;10465272;28;20068;-80
2023/12/02 05:56:58;;;;;;;31.85;14.00;;;;;;;-3.04;82.71;99908.94;10470937;28;20045;-82
2023/12/02 06:02:01;;;;;;;33.53;13.80;;;;;;;-2.89;81.97;99920.72;10469333;28;20036;-82
2023/12/02 06:07:05;;;;;;;30.30;12.45;;;;;;;-3.02;81.80;99909.72;10471329;28;20709;-80
2023/12/02 06:12:09;;;;;;;30.35;12.82;;;;;;;-2.71;81.66;99919.22;10459715;28;20033;-80
2023/12/02 06:17:13;;;;;;;28.08;12.50;;;;;;;-3.00;82.49;99921.91;10476341;28;20033;-80
2023/12/02 06:22:16;;;;;;;35.25;13.43;;;;;;;-2.83;82.21;99928.38;10494013;28;20037;-79
2023/12/02 06:27:20;;;;;;;31.20;12.70;;;;;;;-2.82;82.15;99930.97;10489284;28;20064;-79
2023/12/02 06:32:23;;;;;;;33.20;12.07;;;;;;;-2.72;82.12;99936.78;10488467;28;20037;-81
2023/12/02 06:37:26;;;;;;;25.90;10.93;;;;;;;-2.91;82.76;99935.66;10455105;28;20041;-82
2023/12/02 06:42:31;;;;;;;36.03;14.77;;;;;;;-2.98;84.11;99937.63;10461767;28;20116;-81
2023/12/02 06:47:34;;;;;;;32.95;13.75;;;;;;;-3.03;83.78;99942.19;10470146;28;20465;-81
2023/12/02 06:52:37;;;;;;;31.05;12.88;;;;;;;-3.09;83.92;99945.00;10451736;28;20124;-81
2023/12/02 06:57:42;;;;;;;30.25;13.43;;;;;;;-2.93;83.76;99951.50;10480739;28;20447;-81
2023/12/02 07:02:45;;;;;;;24.30;9.35;;;;;;;-3.10;86.79;99966.91;10450633;28;20052;-81
2023/12/02 07:07:48;;;;;;;62.45;18.33;;;;;;;-1.81;86.99;99958.16;10462111;28;20045;-81
2023/12/02 07:12:53;;;;;;;48.78;16.75;;;;;;;-1.85;81.86;99972.34;10490425;28;20083;-81
2023/12/02 07:17:56;;;;;;;27.75;13.40;;;;;;;-1.59;79.65;99978.41;10485876;28;20060;-82
2023/12/02 07:22:59;;;;;;;25.30;11.77;;;;;;;-2.10;79.45;99978.47;10489426;28;20055;-79
2023/12/02 07:28:03;;;;;;;23.77;11.75;;;;;;;-2.35;79.83;99983.75;10473195;28;20109;-81
2023/12/02 07:33:07;;;;;;;34.15;11.40;;;;;;;-2.97;81.65;99990.13;10478957;28;20087;-81
2023/12/02 07:38:10;;;;;;;27.73;12.63;;;;;;;-3.12;84.83;99990.63;10489321;28;20045;-80
2023/12/02 07:43:14;;;;;;;31.23;13.15;;;;;;;-2.58;84.43;99987.16;10485219;28;20060;-81
2023/12/02 07:48:17;;;;;;;32.13;12.43;;;;;;;-2.60;84.13;99996.84;10477721;28;20048;-79
2023/12/02 07:53:20;;;;;;;30.92;12.80;;;;;;;-2.80;84.49;100007.16;10465011;28;20099;-81
2023/12/02 07:58:25;;;;;;;30.95;12.50;;;;;;;-2.50;83.96;100010.53;10450359;28;20504;-81
2023/12/02 08:03:31;;;;;;;34.33;12.95;;;;;;;-2.65;83.71;100016.31;10458626;28;20056;-81
2023/12/02 08:08:34;;;;;;;32.55;13.63;;;;;;;-2.61;84.84;100024.03;10485027;28;20131;-80
2023/12/02 08:13:39;;;;;;;31.85;12.65;;;;;;;-2.42;83.50;100023.44;10467782;28;20076;-80
2023/12/02 08:18:42;;;;;;;29.38;12.48;;;;;;;-2.60;84.22;100032.81;10491935;28;20037;-82
2023/12/02 08:23:45;;;;;;;31.45;13.35;;;;;;;-2.54;83.79;100036.09;10480386;28;20094;-81
2023/12/02 08:28:49;;;;;;;32.92;12.77;;;;;;;-2.49;83.48;100038.59;10479821;28;20518;-81
2023/12/02 08:33:52;;;;;;;31.35;14.07;;;;;;;-2.35;82.36;100046.03;10477412;28;20064;-80
2023/12/02 08:38:55;;;;;;;30.90;13.48;;;;;;;-2.07;80.70;100044.16;10493526;28;20051;-80
2023/12/02 08:43:59;;;;;;;31.35;12.45;;;;;;;-1.72;79.55;100044.72;10490703;28;20127;-81
2023/12/02 08:49:02;;;;;;;33.95;14.52;;;;;;;-1.83;78.75;100052.16;10496213;28;20045;-82
2023/12/02 08:54:06;;;;;;;38.10;15.45;;;;;;;-1.84;80.02;100053.03;10474212;28;20044;-81
2023/12/02 08:59:10;;;;;;;31.33;13.60;;;;;;;-2.09;81.74;100058.28;10472294;28;20040;-78
2023/12/02 09:04:13;;;;;;;35.90;14.13;;;;;;;-2.38;82.08;100068.03;10462429;28;20037;-79
2023/12/02 09:09:17;;;;;;;34.30;14.32;;;;;;;-1.96;82.17;100070.13;10467438;28;20082;-80
2023/12/02 09:14:21;;;;;;;34.58;14.60;;;;;;;-2.07;81.55;100067.84;10473637;28;20059;-79
2023/12/02 09:19:52;;;;;;;30.63;12.00;;;;;;;-2.16;80.85;100078.72;10487639;28;20039;-81
2023/12/02 09:24:58;;;;;;;33.00;15.05;;;;;;;-2.06;81.41;100084.50;10503258;28;20098;-81
2023/12/02 09:30:04;;;;;;;35.53;14.75;;;;;;;-1.65;80.27;100083.06;10479834;28;20563;-82
2023/12/02 09:35:07;;;;;;;33.22;14.07;;;;;;;-1.22;80.83;100084.16;10488852;28;20586;-81
2023/12/02 09:40:40;;;;;;;35.53;14.95;;;;;;;-2.22;80.20;100089.44;10473865;28;20057;-82
2023/12/02 09:45:59;;;;;;;32.38;14.43;;;;;;;-2.34;83.54;100089.84;10464984;28;20072;-81
2023/12/02 09:51:09;;;;;;;25.20;10.48;;;;;;;-2.18;81.15;100100.72;10466469;28;20053;-80
2023/12/02 09:56:20;;;;;;;34.42;13.70;;;;;;;-2.02;83.46;100103.72;10489276;28;20132;-78
2023/12/02 10:01:37;;;;;;;37.22;16.10;;;;;;;-1.62;81.87;100104.06;10498650;28;20036;-80
2023/12/02 10:06:52;;;;;;;37.00;14.25;;;;;;;-1.52;80.97;100094.03;10471363;28;20049;-79
2023/12/02 10:12:07;;;;;;;30.17;12.10;;;;;;;-2.09;82.08;100100.41;10497134;28;20044;-81
2023/12/02 10:17:12;;;;;;;32.78;15.05;;;;;;;-1.98;84.40;100093.00;10493160;28;20543;-80
2023/12/02 10:22:18;;;;;;;41.35;17.70;;;;;;;-1.78;83.35;100089.72;10483478;28;20055;-81
2023/12/02 10:27:26;;;;;;;33.70;14.23;;;;;;;-1.73;82.75;100093.00;10465694;28;20048;-80
2023/12/02 10:32:39;;;;;;;39.28;14.95;;;;;;;-1.67;81.58;100091.97;10462829;28;20037;-80
2023/12/02 10:37:43;;;;;;;36.53;15.35;;;;;;;-1.43;81.48;100103.38;10459922;28;20072;-79
2023/12/02 10:43:00;;;;;;;38.35;15.48;;;;;;;-1.99;83.20;100095.72;10479465;28;20064;-79
2023/12/02 10:48:05;;;;;;;38.55;14.75;;;;;;;-1.68;82.70;100093.72;10482445;28;20184;-79
2023/12/02 10:53:12;;;;;;;37.90;15.68;;;;;;;-1.36;81.53;100091.72;10475725;28;20063;-81
2023/12/02 10:58:16;;;;;;;38.45;15.32;;;;;;;-1.50;82.34;100094.00;10467009;28;20037;-80
2023/12/02 11:03:31;;;;;;;39.50;14.52;;;;;;;-1.90;83.70;100087.47;10491797;28;20484;-80
2023/12/02 11:08:48;;;;;;;44.80;16.60;;;;;;;-1.71;84.00;100087.72;10481134;28;20076;-79
2023/12/02 11:13:58;;;;;;;43.00;16.48;;;;;;;-1.35;82.22;100087.31;10470615;28;20310;-80
2023/12/02 11:19:29;;;;;;;36.92;16.77;;;;;;;-1.16;81.74;100096.25;10468300;28;20034;-80
2023/12/02 11:24:48;;;;;;;42.97;16.50;;;;;;;-1.47;81.41;100089.47;10504027;28;20057;-80
2023/12/02 11:30:04;;;;;;;34.38;13.52;;;;;;;-1.98;82.28;100082.47;10478705;28;20045;-80
2023/12/02 11:35:14;;;;;;;31.33;14.63;;;;;;;-1.65;83.06;100087.50;10466396;28;20068;-77
2023/12/02 11:40:22;;;;;;;43.10;17.88;;;;;;;-1.62;82.34;100084.75;10470203;28;20403;-79
2023/12/02 11:45:30;;;;;;;34.63;14.95;;;;;;;-2.11;82.36;100092.56;10471015;28;20068;-80
2023/12/02 11:50:42;;;;;;;40.13;16.52;;;;;;;-2.05;83.29;100093.28;10471665;28;20075;-78
2023/12/02 11:55:53;;;;;;;38.95;16.08;;;;;;;-1.66;82.83;100105.06;10471515;28;20036;-79
2023/12/02 12:01:12;;;;;;;34.92;14.48;;;;;;;-2.40;84.30;100100.56;10468537;28;20055;-79
2023/12/02 12:06:35;;;;;;;26.20;9.98;;;;;;;-2.21;83.21;100096.41;10469203;28;20124;-77
2023/12/02 12:11:41;;;;;;;43.45;16.88;;;;;;;-2.17;84.99;100100.66;10456030;28;20041;-80
2023/12/02 12:16:44;;;;;;;40.22;16.75;;;;;;;-1.79;83.44;100100.28;10488028;28;20385;-80
2023/12/02 12:21:48;;;;;;;40.88;18.50;;;;;;;-1.71;81.49;100106.16;10473787;28;20041;-79
2023/12/02 12:26:51;;;;;;;38.42;16.00;;;;;;;-2.17;83.63;100111.19;10478593;28;20063;-79
2023/12/02 12:31:59;;;;;;;39.08;15.95;;;;;;;-1.73;83.17;100106.19;10479317;28;20025;-79
2023/12/02 12:37:03;;;;;;;37.83;15.13;;;;;;;-1.94;82.45;100118.34;10505492;28;20143;-80
2023/12/02 12:42:09;;;;;;;41.15;16.63;;;;;;;-1.49;82.70;100111.53;10480693;28;20041;-80
2023/12/02 12:47:14;;;;;;;37.65;17.17;;;;;;;-1.97;82.00;100125.47;10481027;28;20120;-80
2023/12/02 12:52:21;;;;;;;30.67;13.27;;;;;;;-2.49;84.67;100122.75;10482021;28;20039;-81
2023/12/02 12:57:32;;;;;;;34.45;15.23;;;;;;;-2.02;83.21;100125.63;10494892;28;20484;-81
2023/12/02 13:02:49;;;;;;;38.03;17.70;;;;;;;-1.88;83.06;100118.13;10482470;28;20048;-81
2023/12/02 13:08:02;;;;;;;43.22;18.55;;;;;;;-1.77;82.83;100125.66;10483870;28;20044;-83
2023/12/02 13:13:09;;;;;;;35.47;15.77;;;;;;;-1.79;82.33;100138.00;10464583;28;20068;-82
2023/12/02 13:18:13;;;;;;;41.17;18.38;;;;;;;-1.78;82.62;100147.66;10468236;28;20028;-81
2023/12/02 13:23:21;;;;;;;34.60;15.63;;;;;;;-2.23;83.55;100150.84;10478145;28;20348;-82
2023/12/02 13:28:29;;;;;;;34.85;14.30;;;;;;;-2.14;83.24;100163.75;10499215;28;20101;-81
2023/12/02 13:33:41;;;;;;;40.88;16.15;;;;;;;-2.01;83.55;100172.09;10506927;28;20052;-81
2023/12/02 13:38:57;;;;;;;37.08;15.98;;;;;;;-1.67;82.67;100182.38;10462498;28;20429;-81
2023/12/02 13:44:04;;;;;;;35.60;13.18;;;;;;;-2.62;85.97;100189.78;10491046;28;20048;-81
2023/12/02 13:49:16;;;;;;;38.05;16.25;;;;;;;-2.15;85.79;100188.31;10491433;28;20060;-80
2023/12/02 13:54:35;;;;;;;46.03;15.90;;;;;;;-2.24;84.49;100195.66;10481779;28;20037;-78
2023/12/02 13:59:42;;;;;;;32.20;14.68;;;;;;;-2.49;86.36;100191.16;10478049;28;20064;-79
2023/12/02 14:05:00;;;;;;;40.92;15.93;;;;;;;-2.39;87.20;100205.72;10471022;28;20431;-80
2023/12/02 14:10:07;;;;;;;42.15;17.98;;;;;;;-2.19;85.73;100193.75;10466987;28;20060;-79
2023/12/02 14:15:30;;;;;;;45.65;17.42;;;;;;;-2.03;85.22;100202.00;10474116;28;20033;-80
2023/12/02 14:20:38;;;;;;;46.05;18.02;;;;;;;-2.04;85.83;100201.16;10449331;28;20068;-81
2023/12/02 14:26:01;;;;;;;43.25;15.60;;;;;;;-2.33;85.99;100216.09;10455113;28;20080;-80
2023/12/02 14:31:13;;;;;;;44.35;19.52;;;;;;;-2.39;87.98;100220.66;10460165;28;20044;-80
2023/12/02 14:36:24;;;;;;;;;;;;;;;-2.47;88.04;100227.91;10453903;28;20512;-79
2023/12/02 14:41:43;;;;;;;42.80;17.13;;;;;;;-2.32;87.52;100224.84;10487992;28;19926;-80
2023/12/02 14:46:56;;;;;;;46.88;20.75;;;;;;;-2.23;87.88;100237.69;10449722;28;20049;-81
2023/12/02 14:52:00;;;;;;;45.03;18.27;;;;;;;-2.20;86.96;100234.97;10463862;28;20041;-80
2023/12/02 14:57:19;;;;;;;38.95;17.50;;;;;;;-2.22;87.71;100242.06;10465645;28;20074;-80
2023/12/02 15:02:36;;;;;;;36.65;14.98;;;;;;;-2.39;89.58;100249.59;10462360;28;20045;-81
2023/12/02 15:07:44;;;;;;;41.28;17.48;;;;;;;-2.46;90.15;100269.13;10464576;28;20052;-79
2023/12/02 15:12:50;;;;;;;46.97;19.88;;;;;;;-2.53;92.01;100263.16;10488572;28;20063;-80
2023/12/02 15:17:54;;;;;;;45.50;19.60;;;;;;;-2.65;93.52;100276.66;10462592;28;20079;-81
2023/12/02 15:23:45;;;;;;;53.05;22.35;;;;;;;-2.57;92.45;100279.94;10471080;28;20412;-78
2023/12/02 15:28:53;;;;;;;49.17;19.52;;;;;;;-2.44;93.39;100301.47;10355793;28;20050;-79
2023/12/02 15:33:57;;;;;;;46.92;19.45;;;;;;;-2.36;93.35;100299.50;10458087;28;20056;-81
2023/12/02 15:39:02;;;;;;;48.38;20.65;;;;;;;-2.05;92.19;100304.72;10474394;28;20068;-79
2023/12/02 15:44:07;;;;;;;52.92;19.35;;;;;;;-2.09;91.21;100317.09;10472273;28;21372;-81
2023/12/02 15:49:10;;;;;;;50.75;21.20;;;;;;;-1.98;90.22;100331.72;10468133;28;20048;-80
2023/12/02 15:54:15;;;;;;;55.63;21.20;;;;;;;-2.48;92.29;100332.28;10486202;28;20092;-80
2023/12/02 15:59:21;;;;;;;47.83;19.60;;;;;;;-2.40;93.06;100347.84;10481050;28;20055;-79
2023/12/02 16:04:27;;;;;;;48.33;19.30;;;;;;;-2.57;94.04;100346.56;10471764;28;20127;-79
2023/12/02 16:09:30;;;;;;;54.25;20.75;;;;;;;-2.10;91.53;100352.22;10474246;28;20049;-79
2023/12/02 16:14:35;;;;;;;54.63;21.52;;;;;;;-2.25;93.07;100363.19;10466424;28;20100;-79
2023/12/02 16:19:38;;;;;;;55.95;21.20;;;;;;;-2.15;92.93;100358.53;10468740;28;20483;-79
2023/12/02 16:24:41;;;;;;;53.65;20.63;;;;;;;-2.23;92.82;100371.06;10467522;28;20065;-80
2023/12/02 16:29:51;;;;;;;53.38;21.67;;;;;;;-2.10;93.46;100375.06;10484088;28;20060;-80
2023/12/02 16:34:54;;;;;;;58.45;21.25;;;;;;;-2.20;94.41;100378.84;10470804;28;20047;-80
2023/12/02 16:39:57;;;;;;;56.28;22.63;;;;;;;-1.90;92.76;100382.38;10464715;28;20088;-81
2023/12/02 16:45:15;;;;;;;58.22;23.95;;;;;;;-2.43;95.99;100390.91;10464657;28;20056;-80
2023/12/02 16:50:24;;;;;;;54.70;21.20;;;;;;;-2.15;93.29;100396.25;10496795;28;20049;-80
2023/12/02 16:55:28;;;;;;;56.95;22.65;;;;;;;-2.01;92.32;100405.53;10455907;28;20052;-81
2023/12/02 17:00:36;;;;;;;53.60;21.95;;;;;;;-1.85;91.55;100412.06;10456715;28;20045;-81
2023/12/02 17:06:05;;;;;;;62.63;23.40;;;;;;;-1.90;92.34;100420.09;10472158;28;20052;-81
2023/12/02 17:11:10;;;;;;;54.00;22.38;;;;;;;-1.83;92.06;100427.84;10459002;28;20041;-82
2023/12/02 17:17:02;;;;;;;58.85;22.48;;;;;;;-1.83;91.57;100431.34;10455721;28;20120;-81
2023/12/02 17:22:08;;;;;;;59.88;23.92;;;;;;;-1.76;91.03;100432.84;10473879;28;20457;-80
2023/12/02 17:27:24;;;;;;;59.95;23.55;;;;;;;-1.97;92.29;100433.50;10480722;28;20044;-82
2023/12/02 17:32:27;;;;;;;56.42;23.10;;;;;;;-1.87;91.59;100437.56;10487010;28;20064;-80
2023/12/02 17:37:31;;;;;;;59.60;22.27;;;;;;;-1.99;91.41;100451.09;10487921;28;20049;-80
2023/12/02 17:42:35;;;;;;;54.05;19.63;;;;;;;-2.01;91.72;100447.66;10477914;28;20042;-81
2023/12/02 17:47:38;;;;;;;50.90;20.52;;;;;;;-1.87;91.73;100453.38;10486533;28;20041;-80
2023/12/02 17:52:43;;;;;;;47.70;19.00;;;;;;;-1.90;91.09;100456.97;10481380;28;20060;-81
2023/12/02 17:57:46;;;;;;;52.03;21.05;;;;;;;-1.87;91.56;100463.91;10461741;28;20056;-80
2023/12/02 18:02:50;;;;;;;49.92;20.05;;;;;;;-1.95;91.27;100472.03;10466183;28;20043;-81
2023/12/02 18:07:54;;;;;;;41.42;17.17;;;;;;;-1.78;90.43;100479.47;10459180;28;20056;-80
2023/12/02 18:12:57;;;;;;;44.05;18.38;;;;;;;-1.88;90.62;100484.13;10472790;28;20041;-79
2023/12/02 18:18:00;;;;;;;44.42;17.20;;;;;;;-1.62;88.69;100477.22;10459110;28;20087;-82
2023/12/02 18:23:08;;;;;;;41.60;16.23;;;;;;;-1.73;89.10;100485.44;10458917;28;20045;-79
2023/12/02 18:28:11;;;;;;;45.25;16.35;;;;;;;-1.64;88.37;100489.59;10457516;28;20188;-80
2023/12/02 18:33:14;;;;;;;36.95;15.20;;;;;;;-1.53;87.59;100490.16;10457408;28;20494;-79
2023/12/02 18:38:19;;;;;;;29.23;14.27;;;;;;;-1.95;88.68;100487.81;10474955;28;20040;-79
2023/12/02 18:43:22;;;;;;;41.15;16.95;;;;;;;-1.63;88.93;100486.91;10492941;28;20543;-81
2023/12/02 18:48:25;;;;;;;38.20;15.65;;;;;;;-1.50;87.74;100486.56;10462929;28;20036;-80
2023/12/02 18:53:29;;;;;;;47.08;16.77;;;;;;;-1.70;89.13;100490.66;10469695;28;20500;-80
2023/12/02 18:58:32;;;;;;;47.33;18.60;;;;;;;-1.59;88.95;100495.63;10453951;28;20037;-79
2023/12/02 19:03:35;;;;;;;46.97;18.98;;;;;;;-1.56;88.87;100503.44;10511620;28;20049;-79
2023/12/02 19:08:40;;;;;;;47.55;18.20;;;;;;;-1.91;89.62;100502.63;10471121;28;20044;-79
2023/12/02 19:13:45;;;;;;;52.78;20.38;;;;;;;-1.89;91.48;100508.75;10454358;28;20124;-79
2023/12/02 19:18:48;;;;;;;43.45;18.10;;;;;;;-1.97;90.44;100510.72;10447723;28;20053;-79
2023/12/02 19:23:53;;;;;;;52.17;20.33;;;;;;;-1.91;92.15;100513.16;10457150;28;20041;-82
2023/12/02 19:28:56;;;;;;;57.53;19.88;;;;;;;-1.99;92.43;100509.03;10465674;28;20041;-81
2023/12/02 19:33:59;;;;;;;49.97;18.40;;;;;;;-1.94;93.37;100520.31;10472214;28;20032;-82
2023/12/02 19:39:04;;;;;;;54.65;21.15;;;;;;;-2.01;93.06;100531.88;10506535;28;20053;-81
2023/12/02 19:44:08;;;;;;;58.50;19.20;;;;;;;-1.83;91.61;100530.53;10496207;28;20025;-83
2023/12/02 19:49:12;;;;;;;58.08;21.90;;;;;;;-1.75;91.25;100531.19;10481187;28;20071;-81
2023/12/02 19:54:16;;;;;;;50.15;19.63;;;;;;;-1.78;91.72;100540.03;10482966;28;20156;-80
2023/12/02 19:59:19;;;;;;;52.60;21.55;;;;;;;-1.53;89.81;100542.84;10457962;28;20041;-81
2023/12/02 20:04:22;;;;;;;61.38;21.60;;;;;;;-1.49;89.15;100554.16;10477814;28;20052;-80
2023/12/02 20:09:27;;;;;;;55.70;21.05;;;;;;;-1.51;88.85;100548.06;10480026;28;20060;-82
2023/12/02 20:14:30;;;;;;;57.15;21.83;;;;;;;-1.48;87.99;100561.13;10466573;28;20040;-80
2023/12/02 20:19:34;;;;;;;53.75;22.40;;;;;;;-1.46;88.09;100568.09;10487433;28;20121;-78
2023/12/02 20:24:38;;;;;;;56.47;21.27;;;;;;;-1.44;87.26;100575.97;10485756;28;20033;-79
2023/12/02 20:29:42;;;;;;;57.95;21.45;;;;;;;-1.62;87.95;100582.59;10461812;28;20092;-79
2023/12/02 20:34:45;;;;;;;55.58;23.42;;;;;;;-1.62;88.14;100582.59;10479765;28;20041;-79
2023/12/02 20:39:49;;;;;;;54.55;20.88;;;;;;;-1.51;88.08;100587.59;10469571;28;20037;-79
2023/12/02 20:44:52;;;;;;;48.15;20.33;;;;;;;-1.44;87.43;100583.88;10463772;28;20041;-80
2023/12/02 20:49:57;;;;;;;44.75;17.08;;;;;;;-1.77;88.06;100581.25;10464127;28;20049;-81
2023/12/02 20:55:01;;;;;;;50.67;18.70;;;;;;;-1.76;88.23;100582.97;10468551;28;20052;-80
2023/12/02 21:00:07;;;;;;;48.65;19.00;;;;;;;-1.65;88.37;100583.56;10463480;28;20039;-80
2023/12/02 21:05:11;;;;;;;52.40;21.15;;;;;;;-1.52;88.26;100575.31;10465318;28;20052;-79
2023/12/02 21:10:16;;;;;;;47.72;20.95;;;;;;;-1.59;87.69;100581.66;10470865;28;20045;-80
2023/12/02 21:15:19;;;;;;;51.72;21.77;;;;;;;-1.71;88.65;100582.88;10465208;28;20040;-81
2023/12/02 21:20:22;;;;;;;43.20;18.02;;;;;;;-1.58;87.70;100575.50;10464428;28;20401;-80
2023/12/02 21:25:28;;;;;;;55.60;22.80;;;;;;;-1.49;86.82;100581.38;10464420;28;20053;-79
2023/12/02 21:30:38;;;;;;;58.05;23.20;;;;;;;-1.34;86.23;100580.09;10458843;28;20055;-81
2023/12/02 21:35:48;;;;;;;48.22;19.77;;;;;;;-1.41;86.26;100587.28;10462661;28;20037;-79
2023/12/02 21:40:53;;;;;;;54.63;22.00;;;;;;;-1.39;85.86;100581.97;10461009;28;20088;-79
2023/12/02 21:45:56;;;;;;;55.03;22.38;;;;;;;-1.30;85.16;100581.72;10480510;28;20044;-80
2023/12/02 21:50:59;;;;;;;50.05;22.08;;;;;;;-1.33;85.26;100587.06;10480484;28;20100;-79
2023/12/02 21:56:05;;;;;;;50.45;22.08;;;;;;;-1.33;85.02;100600.25;10468934;28;20042;-78
2023/12/02 22:01:10;;;;;;;51.13;21.85;;;;;;;-1.60;86.13;100603.66;10471272;28;20423;-79
2023/12/02 22:06:46;;;;;;;50.00;21.60;;;;;;;-1.27;85.34;100600.06;10452417;28;20087;-79
2023/12/02 22:11:51;;;;;;;41.75;17.85;;;;;;;-1.27;84.54;100612.38;10368523;28;20047;-80
2023/12/02 22:16:57;;;;;;;52.78;21.25;;;;;;;-1.15;83.98;100605.88;10458245;28;20067;-79
2023/12/02 22:22:01;;;;;;;43.90;19.88;;;;;;;-1.35;84.66;100609.09;10457283;28;20053;-80
2023/12/02 22:27:08;;;;;;;40.30;17.50;;;;;;;-1.35;83.82;100622.28;10460077;28;20045;-78
2023/12/02 22:32:25;;;;;;;50.00;20.75;;;;;;;-1.68;84.99;100609.13;10454677;28;20060;-80
2023/12/02 22:37:28;;;;;;;51.13;21.60;;;;;;;-1.25;83.95;100619.34;10475652;28;20090;-79
2023/12/02 22:42:33;;;;;;;51.03;22.83;;;;;;;-1.53;84.69;100621.91;10455917;28;20033;-79
2023/12/02 22:47:36;;;;;;;40.80;19.83;;;;;;;-1.47;84.35;100631.41;10456276;28;20051;-80
2023/12/02 22:52:39;;;;;;;49.08;21.15;;;;;;;-1.77;85.30;100631.31;10460458;28;20060;-78
2023/12/02 22:57:44;;;;;;;52.67;22.58;;;;;;;-1.19;82.50;100628.84;10484279;28;20036;-79
2023/12/02 23:02:47;;;;;;;51.22;23.50;;;;;;;-1.30;82.94;100633.56;10475687;28;20039;-79